Time;durP1;ratioP1;P1;durP2;ratioP2;P2;SDS_P1;SDS_P2;PMS_P1;PMS_P2;Temp;Humidity;BMP_temperature;BMP_pressure;BME280_temperature;BME280_humidity;BME280_pressure;Samples;Min_cycle;Max_cycle;Signal;HPM_P1;HPM_P2
2022/12/07 00:01:23;;;;;;;;;;;;;;;17.75;73.12;101026.19;7409060;19;1644;-75
2022/12/07 00:03:56;;;;;;;;;;;;;;;17.68;73.38;101017.78;7409840;19;1716;-63
2022/12/07 00:06:25;;;;;;;;;;;;;;;17.65;73.38;101016.22;7410149;19;1727;-75
2022/12/07 00:08:53;;;;;;;;;;;;;;;17.58;73.21;101019.47;7407873;19;1853;-73
2022/12/07 00:11:23;;;;;;;;;;;;;;;17.59;73.82;101021.19;7408870;19;1561;-62
2022/12/07 00:13:54;;;;;;;;;;;;;;;17.53;73.70;101008.28;7409105;19;1605;-75
2022/12/07 00:16:23;;;;;;;;;;;;;;;17.53;73.37;101019.84;7410274;19;1719;-62
2022/12/07 00:18:54;;;;;;;;;;;;;;;17.48;73.59;101024.69;7410368;19;1594;-75
2022/12/07 00:21:23;;;;;;;;;;;;;;;17.88;72.29;101019.75;7408542;19;1677;-63
2022/12/07 00:23:52;;;;;;;;;;;;;;;18.68;69.71;101010.63;7410852;19;1653;-62
2022/12/07 00:26:21;;;;;;;;;;;;;;;19.30;67.86;101013.53;7410468;19;1715;-62
2022/12/07 00:28:50;;;;;;;;;;;;;;;19.63;67.11;101016.94;7407513;19;1857;-63
2022/12/07 00:31:20;;;;;;;;;;;;;;;19.58;66.94;101017.34;7409691;19;1723;-75
2022/12/07 00:33:48;;;;;;;;;;;;;;;19.84;66.56;101017.78;7409188;19;1727;-75
2022/12/07 00:36:20;;;;;;;;;;;;;;;20.02;65.88;101011.78;7409155;19;1589;-63
2022/12/07 00:38:49;;;;;;;;;;;;;;;20.04;65.74;101023.22;7408848;19;1610;-62
2022/12/07 00:41:18;;;;;;;;;;;;;;;20.19;65.40;101029.06;7409155;19;1640;-75
2022/12/07 00:43:47;;;;;;;;;;;;;;;20.24;65.21;101021.44;7409196;19;1632;-63
2022/12/07 00:46:16;;;;;;;;;;;;;;;20.20;65.31;101020.88;7409003;19;1668;-62
2022/12/07 00:48:45;;;;;;;;;;;;;;;19.84;66.52;101027.66;7407288;19;1850;-63
2022/12/07 00:51:14;;;;;;;;;;;;;;;19.16;68.31;101032.59;7408033;19;1748;-75
2022/12/07 00:53:45;;;;;;;;;;;;;;;18.59;69.79;101027.44;7409047;19;1669;-62
2022/12/07 00:56:15;;;;;;;;;;;;;;;18.29;71.13;101026.28;7408745;19;1751;-75
2022/12/07 00:58:43;;;;;;;;;;;;;;;18.13;71.82;101020.50;7408007;19;1668;-75
2022/12/07 01:01:12;;;;;;;;;;;;;;;17.98;71.92;101025.22;7403490;19;1677;-62
2022/12/07 01:03:41;;;;;;;;;;;;;;;17.85;72.40;101011.16;7408054;19;1700;-75
2022/12/07 01:06:09;;;;;;;;;;;;;;;17.79;72.60;101028.50;7402532;19;1790;-75
2022/12/07 01:08:37;;;;;;;;;;;;;;;17.77;72.75;101019.75;7406622;19;1862;-75
2022/12/07 01:11:10;;;;;;;;;;;;;;;17.69;73.16;101022.19;7407830;19;1676;-75
2022/12/07 01:13:38;;;;;;;;;;;;;;;17.68;73.21;101004.41;7406930;19;1760;-62
2022/12/07 01:16:08;;;;;;;;;;;;;;;17.60;73.36;101012.19;7407812;19;1668;-62
2022/12/07 01:18:37;;;;;;;;;;;;;;;17.54;73.57;101008.16;7406604;19;1279;-62
2022/12/07 01:21:07;;;;;;;;;;;;;;;17.50;73.65;100996.84;7407064;19;1676;-63
2022/12/07 01:23:36;;;;;;;;;;;;;;;17.47;73.56;100981.06;7406424;19;1626;-75
2022/12/07 01:26:06;;;;;;;;;;;;;;;17.45;73.19;100977.66;7406977;19;1701;-62
2022/12/07 01:28:37;;;;;;;;;;;;;;;17.43;73.48;100984.13;7405540;19;1857;-62
2022/12/07 01:31:06;;;;;;;;;;;;;;;17.58;73.00;100966.00;7406876;19;1763;-62
2022/12/07 01:33:35;;;;;;;;;;;;;;;18.07;71.78;100992.38;7406372;19;1676;-75
2022/12/07 01:36:04;;;;;;;;;;;;;;;18.47;70.64;100980.25;7407146;19;1664;-75
2022/12/07 01:38:33;;;;;;;;;;;;;;;18.80;69.60;100981.13;7407315;19;1617;-62
2022/12/07 01:41:02;;;;;;;;;;;;;;;18.98;69.03;100968.00;7406513;19;1672;-75
2022/12/07 01:43:32;;;;;;;;;;;;;;;19.10;68.67;100960.72;7407292;19;1677;-75
2022/12/07 01:46:03;;;;;;;;;;;;;;;19.16;68.52;100968.25;7406807;19;1763;-75
2022/12/07 01:48:35;;;;;;;;;;;;;;;19.33;68.01;100978.38;7405262;19;1853;-75
2022/12/07 01:51:07;;;;;;;;;;;;;;;19.43;68.08;100973.06;7406880;19;1488;-74
2022/12/07 01:53:38;;;;;;;;;;;;;;;19.54;67.65;100964.94;7405480;19;1664;-63
2022/12/07 01:56:08;;;;;;;;;;;;;;;19.50;67.55;100950.09;7406194;19;1665;-63
2022/12/07 01:58:37;;;;;;;;;;;;;;;19.60;67.25;100963.56;7406252;19;1625;-62
2022/12/07 02:01:07;;;;;;;;;;;;;;;19.55;67.52;100952.38;7404764;19;1625;-62
2022/12/07 02:03:39;;;;;;;;;;;;;;;19.51;67.47;100969.72;7404333;19;1672;-62
2022/12/07 02:06:08;;;;;;;;;;;;;;;19.51;67.75;100980.44;7406127;19;1565;-63
2022/12/07 02:08:36;;;;;;;;;;;;;;;19.48;67.57;100993.16;7404405;19;1862;-63
2022/12/07 02:11:06;;;;;;;;;;;;;;;19.50;67.60;100995.72;7405351;19;1696;-63
2022/12/07 02:13:35;;;;;;;;;;;;;;;19.43;67.96;100981.13;7405312;19;1693;-75
2022/12/07 02:16:12;;;;;;;;;;;;;;;19.55;67.35;100979.19;7405376;19;1700;-63
2022/12/07 02:18:47;;;;;;;;;;;;;;;19.69;67.15;100989.56;7404758;19;1716;-75
2022/12/07 02:21:19;;;;;;;;;;;;;;;19.52;67.54;100976.78;7403694;19;1711;-75
2022/12/07 02:24:00;;;;;;;;;;;;;;;19.62;67.19;100977.69;7404989;19;1601;-74
2022/12/07 02:26:46;;;;;;;;;;;;;;;19.61;67.37;100975.97;7406003;19;1700;-75
2022/12/07 02:29:22;;;;;;;;;;;;;;;19.58;67.11;100965.53;7404478;19;1861;-75
2022/12/07 02:31:53;;;;;;;;;;;;;;;19.59;67.28;100973.44;7404901;19;1766;-63
2022/12/07 02:34:25;;;;;;;;;;;;;;;19.60;67.24;100960.88;7405342;19;1731;-63
2022/12/07 02:36:56;;;;;;;;;;;;;;;19.60;67.33;100979.66;7404832;19;1597;-75
2022/12/07 02:39:31;;;;;;;;;;;;;;;19.63;67.35;100980.22;7405691;19;1640;-62
2022/12/07 02:42:03;;;;;;;;;;;;;;;19.64;67.12;100968.53;7404946;19;1609;-63
2022/12/07 02:44:35;;;;;;;;;;;;;;;19.59;67.14;100969.91;7404192;19;1616;-75
2022/12/07 02:47:05;;;;;;;;;;;;;;;19.68;67.04;100967.25;7404535;19;1668;-75
2022/12/07 02:49:34;;;;;;;;;;;;;;;19.80;66.56;100964.53;7402509;19;1842;-75
2022/12/07 02:52:02;;;;;;;;;;;;;;;19.82;66.76;100966.06;7402827;19;1868;-63
2022/12/07 02:54:31;;;;;;;;;;;;;;;19.76;66.73;100966.63;7402226;19;1666;-62
2022/12/07 02:57:04;;;;;;;;;;;;;;;19.71;66.83;100966.16;7404092;19;1665;-75
2022/12/07 02:59:43;;;;;;;;;;;;;;;19.59;67.00;100960.00;7403640;19;1585;-75
2022/12/07 03:02:16;;;;;;;;;;;;;;;19.64;67.12;100954.25;7400124;19;1597;-62
2022/12/07 03:04:47;;;;;;;;;;;;;;;19.72;67.03;100961.69;7403777;19;1597;-62
2022/12/07 03:07:21;;;;;;;;;;;;;;;19.71;66.74;100944.69;7404060;19;1589;-63
2022/12/07 03:09:54;;;;;;;;;;;;;;;19.84;66.37;100961.41;7401424;19;1866;-75
2022/12/07 03:12:28;;;;;;;;;;;;;;;19.86;66.10;100943.34;7404489;19;1719;-75
2022/12/07 03:15:02;;;;;;;;;;;;;;;19.83;66.46;100946.28;7402976;19;1577;-75
2022/12/07 03:17:33;;;;;;;;;;;;;;;19.78;66.48;100959.28;7402581;19;1614;-63
2022/12/07 03:20:04;;;;;;;;;;;;;;;19.78;66.34;100935.13;7403063;19;1617;-75
2022/12/07 03:22:34;;;;;;;;;;;;;;;19.78;66.63;100956.59;7402996;19;1585;-75
2022/12/07 03:25:05;;;;;;;;;;;;;;;19.80;66.76;100941.22;7403308;19;1609;-63
2022/12/07 03:27:36;;;;;;;;;;;;;;;19.74;66.76;100940.91;7403295;19;1632;-75
2022/12/07 03:30:09;;;;;;;;;;;;;;;19.22;68.25;100932.91;7408123;19;1857;-63
2022/12/07 03:32:42;;;;;;;;;;;;;;;18.77;69.85;100959.94;7410379;19;1704;-75
2022/12/07 03:35:16;;;;;;;;;;;;;;;18.51;70.81;100948.72;7410900;19;1617;-62
2022/12/07 03:37:48;;;;;;;;;;;;;;;18.40;71.22;100947.78;7411538;19;1593;-75
2022/12/07 03:40:20;;;;;;;;;;;;;;;18.31;71.03;100947.69;7410951;19;1676;-75
2022/12/07 03:42:49;;;;;;;;;;;;;;;18.23;71.65;100957.19;7410521;19;1633;-75
2022/12/07 03:45:20;;;;;;;;;;;;;;;18.13;71.76;100950.91;7411129;19;1593;-63
2022/12/07 03:47:51;;;;;;;;;;;;;;;18.06;71.64;100933.63;7409528;19;1618;-75
2022/12/07 03:50:24;;;;;;;;;;;;;;;17.99;71.71;100944.00;7407979;19;1874;-76
2022/12/07 03:52:56;;;;;;;;;;;;;;;17.95;71.80;100939.03;7409975;19;1617;-62
2022/12/07 03:55:27;;;;;;;;;;;;;;;17.92;72.12;100947.28;7410706;19;1735;-63
2022/12/07 03:57:58;;;;;;;;;;;;;;;17.87;72.13;100937.81;7408125;19;1617;-63
2022/12/07 04:00:29;;;;;;;;;;;;;;;17.86;72.38;100952.16;7410422;19;1632;-76
2022/12/07 04:02:58;;;;;;;;;;;;;;;17.87;72.23;100967.25;7407348;19;1601;-76
2022/12/07 04:05:26;;;;;;;;;;;;;;;17.81;72.58;100959.69;7410588;19;1648;-63
2022/12/07 04:07:55;;;;;;;;;;;;;;;17.76;72.66;100948.47;7409560;19;1700;-63
2022/12/07 04:10:23;;;;;;;;;;;;;;;17.73;72.60;100935.38;7407882;19;1842;-75
2022/12/07 04:12:52;;;;;;;;;;;;;;;17.68;72.51;100943.75;7409144;19;1664;-76
2022/12/07 04:15:20;;;;;;;;;;;;;;;17.65;72.39;100953.84;7409686;19;1582;-62
2022/12/07 04:17:51;;;;;;;;;;;;;;;17.65;72.71;100937.81;7408840;19;1609;-74
2022/12/07 04:20:22;;;;;;;;;;;;;;;17.59;73.13;100946.31;7409328;19;1640;-75
2022/12/07 04:22:50;;;;;;;;;;;;;;;17.59;73.22;100957.03;7409121;19;1617;-63
2022/12/07 04:25:18;;;;;;;;;;;;;;;17.55;73.13;100952.88;7409032;19;1680;-75
2022/12/07 04:27:47;;;;;;;;;;;;;;;17.52;73.29;100939.75;7408268;19;1715;-63
2022/12/07 04:30:15;;;;;;;;;;;;;;;17.53;73.29;100944.09;7407220;19;1853;-76
2022/12/07 04:32:44;;;;;;;;;;;;;;;18.52;69.96;100935.19;7409514;19;1312;-63
2022/12/07 04:35:15;;;;;;;;;;;;;;;19.25;67.69;100943.34;7409120;19;1613;-63
2022/12/07 04:37:43;;;;;;;;;;;;;;;19.71;66.31;100946.50;7408321;19;1692;-63
2022/12/07 04:40:14;;;;;;;;;;;;;;;19.60;66.71;100934.06;7405530;19;1680;-63
2022/12/07 04:42:42;;;;;;;;;;;;;;;19.57;67.18;100942.38;7408648;19;1798;-63
2022/12/07 04:45:11;;;;;;;;;;;;;;;19.57;66.97;100921.75;7408795;19;1684;-63
2022/12/07 04:47:40;;;;;;;;;;;;;;;19.62;66.94;100930.25;7407325;19;1593;-63
2022/12/07 04:50:09;;;;;;;;;;;;;;;19.85;66.34;100938.94;7405787;19;1866;-71
2022/12/07 04:52:39;;;;;;;;;;;;;;;19.99;66.09;100950.28;7407666;19;1609;-62
2022/12/07 04:55:08;;;;;;;;;;;;;;;19.86;66.69;100932.59;7407818;19;1617;-70
2022/12/07 04:57:37;;;;;;;;;;;;;;;19.84;66.23;100929.22;7407321;19;1644;-64
2022/12/07 05:00:06;;;;;;;;;;;;;;;19.43;67.84;100940.88;7405077;19;1633;-73
2022/12/07 05:02:35;;;;;;;;;;;;;;;18.85;69.15;100930.69;7403770;19;1371;-69
2022/12/07 05:05:03;;;;;;;;;;;;;;;18.47;70.49;100942.75;7403816;19;985;-64
2022/12/07 05:07:31;;;;;;;;;;;;;;;18.25;71.17;100949.88;7405531;19;1316;-69
2022/12/07 05:10:02;;;;;;;;;;;;;;;18.09;71.53;100955.66;7406581;19;1854;-69
2022/12/07 05:12:31;;;;;;;;;;;;;;;17.97;71.86;100945.94;7408561;19;1310;-64
2022/12/07 05:14:59;;;;;;;;;;;;;;;17.93;71.88;100935.63;7408219;19;1310;-69
2022/12/07 05:17:27;;;;;;;;;;;;;;;17.86;71.93;100953.97;7407320;19;1230;-69
2022/12/07 05:19:58;;;;;;;;;;;;;;;17.79;72.17;100958.94;7406447;19;1176;-69
2022/12/07 05:22:28;;;;;;;;;;;;;;;17.76;72.22;100951.16;7405647;19;1486;-64
2022/12/07 05:24:56;;;;;;;;;;;;;;;17.72;72.33;100979.13;7407707;19;1300;-64
2022/12/07 05:27:27;;;;;;;;;;;;;;;17.67;72.20;100966.13;7407822;19;1321;-70
2022/12/07 05:29:55;;;;;;;;;;;;;;;17.60;72.62;100958.72;7406775;19;1862;-64
2022/12/07 05:32:23;;;;;;;;;;;;;;;17.60;72.47;100964.06;7407575;19;1219;-64
2022/12/07 05:34:54;;;;;;;;;;;;;;;17.55;72.37;100968.91;7407802;19;1227;-69
2022/12/07 05:37:22;;;;;;;;;;;;;;;17.49;72.58;100957.75;7407777;19;1160;-69
2022/12/07 05:39:51;;;;;;;;;;;;;;;17.47;72.60;100954.34;7404842;19;1175;-69
2022/12/07 05:42:19;;;;;;;;;;;;;;;17.47;72.43;100954.34;7403289;19;993;-64
2022/12/07 05:44:50;;;;;;;;;;;;;;;17.42;72.42;100939.63;7403857;19;1000;-69
2022/12/07 05:47:19;;;;;;;;;;;;;;;17.41;72.32;100965.50;7408057;19;1223;-65
2022/12/07 05:49:47;;;;;;;;;;;;;;;17.38;72.82;100955.03;7402870;19;1857;-64
2022/12/07 05:52:16;;;;;;;;;;;;;;;18.22;70.24;100960.00;7399712;19;989;-64
2022/12/07 05:54:44;;;;;;;;;;;;;;;18.73;68.54;100943.25;7401450;19;997;-69
2022/12/07 05:57:12;;;;;;;;;;;;;;;19.24;67.71;100955.06;7401368;19;1449;-69
2022/12/07 05:59:38;;;;;;;;;;;;;;;19.11;68.83;100951.72;7401873;19;919;-70
2022/12/07 06:02:10;;;;;;;;;;;;;;;19.04;69.49;100936.19;7399761;19;1284;-65
2022/12/07 06:04:39;;;;;;;;;;;;;;;19.25;69.49;100951.38;7406175;19;944;-64
2022/12/07 06:07:08;;;;;;;;;;;;;;;19.33;69.20;100948.88;7399950;19;893;-63
2022/12/07 06:09:37;;;;;;;;;;;;;;;19.45;69.22;100950.50;7401748;19;1858;-64
2022/12/07 06:14:47;;;;;;;;;;;;;;;19.54;68.83;100956.06;7402398;19;801;-69
2022/12/07 06:17:18;;;;;;;;;;;;;;;19.47;68.77;100958.41;7402111;19;1309;-69
2022/12/07 06:19:47;;;;;;;;;;;;;;;18.87;70.31;100944.78;7399836;19;1057;-64
2022/12/07 06:22:16;;;;;;;;;;;;;;;18.52;71.06;100956.59;7391125;19;1111;-69
2022/12/07 06:24:44;;;;;;;;;;;;;;;18.24;72.21;100958.91;7400835;19;1244;-64
2022/12/07 06:27:12;;;;;;;;;;;;;;;18.18;72.60;100955.88;7399930;19;965;-65
2022/12/07 06:29:41;;;;;;;;;;;;;;;18.14;72.80;100951.75;7399355;19;1822;-65
2022/12/07 06:32:09;;;;;;;;;;;;;;;18.05;72.89;100953.34;7400672;19;1052;-67
2022/12/07 06:34:40;;;;;;;;;;;;;;;18.04;73.08;100957.00;7398884;19;1064;-75
2022/12/07 06:37:08;;;;;;;;;;;;;;;18.02;73.06;100961.63;7400517;19;1131;-67
2022/12/07 06:39:38;;;;;;;;;;;;;;;17.98;73.29;100978.91;7401314;19;1018;-67
2022/12/07 06:42:06;;;;;;;;;;;;;;;17.94;73.18;100967.59;7401833;19;1003;-68
2022/12/07 06:44:35;;;;;;;;;;;;;;;17.85;73.51;100979.88;7402054;19;1012;-68
2022/12/07 06:47:04;;;;;;;;;;;;;;;17.79;73.74;100960.78;7401619;19;1009;-68
2022/12/07 06:49:32;;;;;;;;;;;;;;;17.75;73.89;100956.66;7400981;19;1859;-67
2022/12/07 06:52:04;;;;;;;;;;;;;;;17.71;74.08;100969.41;7401505;19;1009;-67
2022/12/07 06:54:33;;;;;;;;;;;;;;;17.66;74.09;100961.72;7402691;19;1460;-67
2022/12/07 06:57:01;;;;;;;;;;;;;;;17.60;74.42;100953.38;7405089;19;993;-68
2022/12/07 06:59:29;;;;;;;;;;;;;;;17.63;74.26;100966.50;7401047;19;1064;-62
2022/12/07 07:01:58;;;;;;;;;;;;;;;17.59;74.34;100957.03;7399661;19;1379;-62
2022/12/07 07:04:26;;;;;;;;;;;;;;;17.49;74.96;100973.78;7410785;19;1060;-62
2022/12/07 07:06:54;;;;;;;;;;;;;;;17.46;73.38;100978.50;7408712;19;993;-63
2022/12/07 07:09:26;;;;;;;;;;;;;;;17.38;73.43;100979.09;7408312;19;1849;-64
2022/12/07 07:11:54;;;;;;;;;;;;;;;17.38;73.19;100981.78;7411042;19;959;-63
2022/12/07 07:14:22;;;;;;;;;;;;;;;17.31;72.07;100969.88;7407879;19;993;-63
2022/12/07 07:16:51;;;;;;;;;;;;;;;17.32;72.33;100970.72;7408247;19;992;-64
2022/12/07 07:19:19;;;;;;;;;;;;;;;17.30;72.31;100976.19;7408335;19;1071;-65
2022/12/07 07:21:47;;;;;;;;;;;;;;;17.86;70.70;100959.31;7407915;19;948;-64
2022/12/07 07:24:15;;;;;;;;;;;;;;;18.86;67.69;100975.25;7408093;19;1060;-64
2022/12/07 07:26:46;;;;;;;;;;;;;;;19.38;65.65;100949.34;7407997;19;1004;-64
2022/12/07 07:29:15;;;;;;;;;;;;;;;19.20;66.51;100975.03;7408126;19;1026;-65
2022/12/07 07:31:43;;;;;;;;;;;;;;;18.99;67.13;100953.63;7405499;19;1853;-64
2022/12/07 07:34:11;;;;;;;;;;;;;;;19.20;66.66;100967.00;7411848;19;1068;-67
2022/12/07 07:36:40;;;;;;;;;;;;;;;19.41;65.94;100959.78;7407720;19;1107;-64
2022/12/07 07:39:08;;;;;;;;;;;;;;;19.36;66.08;100967.41;7407586;19;1012;-65
2022/12/07 07:41:36;;;;;;;;;;;;;;;19.31;66.24;100953.53;7406791;19;1067;-64
2022/12/07 07:44:07;;;;;;;;;;;;;;;19.26;66.48;100955.78;7407391;19;1072;-64
2022/12/07 07:46:36;;;;;;;;;;;;;;;19.35;66.47;100971.06;7407572;19;954;-64
2022/12/07 07:49:04;;;;;;;;;;;;;;;19.26;66.62;100963.81;7407817;19;1041;-66
2022/12/07 07:51:32;;;;;;;;;;;;;;;19.30;66.27;100956.34;7404713;19;1849;-64
2022/12/07 07:54:01;;;;;;;;;;;;;;;19.25;66.45;100962.94;7406999;19;985;-68
2022/12/07 07:56:29;;;;;;;;;;;;;;;19.27;66.24;100962.81;7408105;19;841;-65
2022/12/07 07:58:58;;;;;;;;;;;;;;;19.34;66.03;100958.66;7405638;19;1007;-65
2022/12/07 08:01:28;;;;;;;;;;;;;;;19.23;66.80;100972.97;7404899;19;1458;-65
2022/12/07 08:03:57;;;;;;;;;;;;;;;19.23;66.99;100972.13;7410147;19;981;-68
2022/12/07 08:06:25;;;;;;;;;;;;;;;19.27;66.96;100960.13;7406364;19;982;-69
2022/12/07 08:08:54;;;;;;;;;;;;;;;19.29;66.99;100960.84;7406163;19;1013;-69
2022/12/07 08:11:22;;;;;;;;;;;;;;;19.42;66.66;100966.88;7404314;19;1846;-69
2022/12/07 08:13:51;;;;;;;;;;;;;;;19.44;66.35;100959.53;7404965;19;1001;-65
2022/12/07 08:16:19;;;;;;;;;;;;;;;19.41;66.37;100948.22;7406134;19;997;-69
2022/12/07 08:18:50;;;;;;;;;;;;;;;19.48;66.50;100968.16;7405883;19;1067;-69
2022/12/07 08:21:18;;;;;;;;;;;;;;;19.41;66.70;100950.91;7405203;19;1008;-65
2022/12/07 08:23:47;;;;;;;;;;;;;;;19.40;66.63;100943.84;7406317;19;1041;-71
2022/12/07 08:26:16;;;;;;;;;;;;;;;19.47;66.38;100953.03;7406106;19;1007;-70
2022/12/07 08:28:45;;;;;;;;;;;;;;;19.43;66.58;100955.13;7405178;19;993;-71
2022/12/07 08:31:14;;;;;;;;;;;;;;;19.41;66.83;100950.91;7404429;19;1849;-65
2022/12/07 08:33:42;;;;;;;;;;;;;;;19.48;66.67;100950.25;7408811;19;1037;-70
2022/12/07 08:36:15;;;;;;;;;;;;;;;19.52;66.46;100960.69;7405604;19;940;-62
2022/12/07 08:38:44;;;;;;;;;;;;;;;19.52;66.58;100960.69;7405276;19;997;-75
2022/12/07 08:41:12;;;;;;;;;;;;;;;19.44;66.75;100956.00;7405513;19;993;-65
2022/12/07 08:43:40;;;;;;;;;;;;;;;19.49;66.61;100961.81;7405107;19;948;-66
2022/12/07 08:46:11;;;;;;;;;;;;;;;19.54;66.52;100956.06;7405197;19;951;-75
2022/12/07 08:48:43;;;;;;;;;;;;;;;19.54;66.48;100964.09;7405593;19;1006;-75
2022/12/07 08:51:14;;;;;;;;;;;;;;;19.42;66.69;100953.47;7402557;19;1842;-66
2022/12/07 08:53:43;;;;;;;;;;;;;;;19.51;66.59;100962.53;7404927;19;1001;-66
2022/12/07 08:56:12;;;;;;;;;;;;;;;19.42;66.79;100958.81;7407438;19;996;-77
2022/12/07 08:58:41;;;;;;;;;;;;;;;19.50;66.66;100962.66;7404490;19;1005;-75
2022/12/07 09:01:09;;;;;;;;;;;;;;;19.55;66.41;100957.75;7402025;19;1469;-76
2022/12/07 09:03:38;;;;;;;;;;;;;;;19.56;66.49;100954.09;7409093;19;1124;-78
2022/12/07 09:06:07;;;;;;;;;;;;;;;19.56;66.33;100940.69;7402680;19;1579;-72
2022/12/07 09:08:40;;;;;;;;;;;;;;;19.18;67.57;100932.31;7404908;19;956;-74
2022/12/07 09:11:08;;;;;;;;;;;;;;;18.67;68.94;100908.94;7403593;19;1891;-65
2022/12/07 09:13:36;;;;;;;;;;;;;;;18.43;69.66;100912.72;7404085;19;1284;-75
2022/12/07 09:16:05;;;;;;;;;;;;;;;18.26;70.29;100890.03;7404646;19;928;-66
2022/12/07 09:18:33;;;;;;;;;;;;;;;18.14;70.58;100887.50;7404044;19;1056;-75
2022/12/07 09:21:02;;;;;;;;;;;;;;;18.11;70.80;100899.31;7403126;19;881;-66
2022/12/07 09:23:30;;;;;;;;;;;;;;;18.04;70.79;100890.94;7404001;19;1055;-67
2022/12/07 09:26:04;;;;;;;;;;;;;;;17.97;71.13;100895.09;7402074;19;1064;-67
2022/12/07 09:28:32;;;;;;;;;;;;;;;17.93;71.07;100922.25;7403660;19;989;-71
2022/12/07 09:31:14;;;;;;;;;;;;;;;17.88;71.16;100909.22;7403287;19;1845;-79
2022/12/07 09:33:42;;;;;;;;;;;;;;;17.87;71.39;100905.72;7407238;19;998;-67
2022/12/07 09:36:11;;;;;;;;;;;;;;;17.82;71.39;100913.22;7404217;19;1005;-65
2022/12/07 09:38:40;;;;;;;;;;;;;;;17.80;71.52;100906.28;7406212;19;948;-83
2022/12/07 09:41:11;;;;;;;;;;;;;;;17.76;71.54;100926.25;7404084;19;1010;-68
2022/12/07 09:43:41;;;;;;;;;;;;;;;17.82;71.76;100936.44;7403135;19;1032;-78
2022/12/07 09:46:13;;;;;;;;;;;;;;;17.85;71.76;100907.66;7403258;19;1020;-71
2022/12/07 09:48:42;;;;;;;;;;;;;;;17.88;71.55;100888.66;7403516;19;1018;-70
2022/12/07 09:51:16;;;;;;;;;;;;;;;17.85;71.58;100904.97;7402711;19;1871;-70
2022/12/07 09:53:45;;;;;;;;;;;;;;;17.84;71.89;100895.25;7403100;19;982;-74
2022/12/07 09:56:17;;;;;;;;;;;;;;;17.85;71.94;100888.09;7403028;19;925;-77
2022/12/07 09:58:46;;;;;;;;;;;;;;;17.91;71.86;100876.03;7400963;19;991;-66
2022/12/07 10:01:16;;;;;;;;;;;;;;;17.99;72.76;100873.59;7399554;19;1509;-66
2022/12/07 10:03:46;;;;;;;;;;;;;;;18.02;71.64;100873.31;7405830;19;947;-70
2022/12/07 10:06:15;;;;;;;;;;;;;;;18.00;71.72;100880.63;7403116;19;960;-70
2022/12/07 10:08:43;;;;;;;;;;;;;;;17.94;72.19;100881.13;7402852;19;1003;-74
2022/12/07 10:11:14;;;;;;;;;;;;;;;17.86;72.39;100857.66;7402203;19;1858;-75
2022/12/07 10:13:48;;;;;;;;;;;;;;;17.83;72.18;100865.94;7403872;19;1146;-71
2022/12/07 10:16:31;;;;;;;;;;;;;;;17.82;72.47;100873.09;7400746;19;1009;-74
2022/12/07 10:18:59;;;;;;;;;;;;;;;17.86;72.84;100863.03;7399972;19;1389;-72
2022/12/07 10:21:28;;;;;;;;;;;;;;;17.94;73.14;100865.06;7401715;19;1142;-70
2022/12/07 10:24:04;;;;;;;;;;;;;;;18.02;73.10;100851.91;7394761;19;1260;-70
2022/12/07 10:26:34;;;;;;;;;;;;;;;17.95;72.83;100850.72;7397484;19;989;-71
2022/12/07 10:29:16;;;;;;;;;;;;;;;18.02;73.19;100858.09;7291027;19;1256;-70
2022/12/07 10:31:46;;;;;;;;;;;;;;;18.02;73.12;100867.97;7394299;19;1875;-73
2022/12/07 10:34:24;;;;;;;;;;;;;;;18.02;73.32;100852.75;7403334;19;1019;-73
2022/12/07 10:36:53;;;;;;;;;;;;;;;18.05;72.80;100871.25;7400698;19;960;-69
2022/12/07 10:39:22;;;;;;;;;;;;;;;18.05;72.65;100855.19;7401244;19;1423;-67
2022/12/07 10:41:58;;;;;;;;;;;;;;;18.05;72.75;100860.53;7403553;19;1122;-68
2022/12/07 10:44:30;;;;;;;;;;;;;;;18.04;72.71;100849.94;7400146;19;944;-68
2022/12/07 10:47:03;;;;;;;;;;;;;;;18.02;72.91;100859.94;7400482;19;965;-66
2022/12/07 10:49:39;;;;;;;;;;;;;;;18.03;73.19;100859.81;7404474;19;1491;-68
2022/12/07 10:52:13;;;;;;;;;;;;;;;18.03;73.03;100870.53;7398342;19;1868;-66
2022/12/07 10:54:47;;;;;;;;;;;;;;;18.00;72.91;100840.47;7397683;19;1440;-68
2022/12/07 10:57:27;;;;;;;;;;;;;;;18.04;72.87;100839.25;7404407;19;1274;-69
2022/12/07 11:00:03;;;;;;;;;;;;;;;18.08;72.76;100832.66;7404337;19;1141;-74
2022/12/07 11:02:52;;;;;;;;;;;;;;;18.05;73.12;100852.50;7401128;19;1466;-72
2022/12/07 11:05:27;;;;;;;;;;;;;;;17.99;73.32;100831.63;7399573;19;1217;-76
2022/12/07 11:08:00;;;;;;;;;;;;;;;18.06;72.79;100823.91;7401183;19;962;-74
2022/12/07 11:10:33;;;;;;;;;;;;;;;18.10;72.50;100828.03;7404069;19;1202;-69
2022/12/07 11:13:11;;;;;;;;;;;;;;;18.06;72.40;100831.94;7399815;19;1853;-65
2022/12/07 11:15:49;;;;;;;;;;;;;;;17.83;72.78;100810.63;7400530;19;1072;-67
2022/12/07 11:18:22;;;;;;;;;;;;;;;17.77;72.92;100811.09;7400880;19;964;-67
2022/12/07 11:20:55;;;;;;;;;;;;;;;17.80;72.89;100815.34;7400822;19;992;-67
2022/12/07 11:23:29;;;;;;;;;;;;;;;17.78;72.59;100801.25;7400763;19;1044;-72
2022/12/07 11:26:02;;;;;;;;;;;;;;;17.81;72.51;100823.25;7404317;19;999;-72
2022/12/07 11:28:38;;;;;;;;;;;;;;;17.76;72.74;100788.00;7400900;19;1014;-71
2022/12/07 11:31:15;;;;;;;;;;;;;;;17.69;72.42;100795.69;7400422;19;1853;-71
2022/12/07 11:33:47;;;;;;;;;;;;;;;17.77;72.47;100812.94;7401708;19;1535;-69
2022/12/07 11:36:26;;;;;;;;;;;;;;;17.83;72.21;100809.75;7403789;19;1708;-69
2022/12/07 11:38:55;;;;;;;;;;;;;;;17.81;72.06;100795.66;7402795;19;1692;-74
2022/12/07 11:41:26;;;;;;;;;;;;;;;17.88;72.22;100797.72;7403036;19;1751;-71
2022/12/07 11:43:57;;;;;;;;;;;;;;;17.83;72.59;100799.06;7403517;19;1633;-69
2022/12/07 11:46:31;;;;;;;;;;;;;;;17.84;72.47;100796.25;7403225;19;1730;-72
2022/12/07 11:49:04;;;;;;;;;;;;;;;17.75;72.79;100780.97;7402859;19;1621;-71
2022/12/07 11:51:36;;;;;;;;;;;;;;;17.79;73.01;100785.09;7410059;19;1858;-69
2022/12/07 11:54:06;;;;;;;;;;;;;;;17.80;73.17;100786.75;7410361;19;1759;-71
2022/12/07 11:56:38;;;;;;;;;;;;;;;17.85;72.93;100770.38;7410868;19;1449;-65
2022/12/07 11:59:11;;;;;;;;;;;;;;;17.85;72.25;100776.56;7409484;19;1672;-65
2022/12/07 12:01:48;;;;;;;;;;;;;;;17.83;72.08;100770.50;7408619;19;1740;-66
2022/12/07 12:04:26;;;;;;;;;;;;;;;17.74;72.59;100767.72;7407361;19;1074;-66
2022/12/07 12:06:54;;;;;;;;;;;;;;;17.66;72.68;100765.66;7410143;19;1235;-65
2022/12/07 12:09:25;;;;;;;;;;;;;;;17.64;72.92;100770.28;7409490;19;1208;-67
2022/12/07 12:12:04;;;;;;;;;;;;;;;17.65;73.20;100762.16;7409533;19;1866;-68
2022/12/07 12:14:48;;;;;;;;;;;;;;;17.73;72.86;100772.22;7408427;19;1545;-72
2022/12/07 12:17:34;;;;;;;;;;;;;;;17.78;72.63;100775.34;7409346;19;1649;-67
2022/12/07 12:20:08;;;;;;;;;;;;;;;17.81;72.81;100774.25;7408048;19;1713;-67
2022/12/07 12:22:39;;;;;;;;;;;;;;;17.79;72.83;100755.66;7409677;19;1728;-68
2022/12/07 12:25:09;;;;;;;;;;;;;;;17.82;72.50;100739.34;7409420;19;1672;-62
2022/12/07 12:27:39;;;;;;;;;;;;;;;17.90;72.35;100746.75;7407833;19;1663;-67
2022/12/07 12:30:09;;;;;;;;;;;;;;;17.84;72.47;100742.75;7409280;19;1668;-69
2022/12/07 12:32:41;;;;;;;;;;;;;;;17.67;72.51;100740.63;7406862;19;1865;-67
2022/12/07 12:35:30;;;;;;;;;;;;;;;17.57;72.98;100737.03;7409261;19;1590;-70
2022/12/07 12:38:18;;;;;;;;;;;;;;;17.57;72.93;100737.03;7406518;19;1637;-75
2022/12/07 12:40:47;;;;;;;;;;;;;;;17.54;72.71;100739.94;7406439;19;1724;-69
2022/12/07 12:43:33;;;;;;;;;;;;;;;17.53;72.57;100748.94;7407956;19;1492;-67
2022/12/07 12:46:16;;;;;;;;;;;;;;;17.52;72.77;100737.38;7406974;19;1629;-67
2022/12/07 12:48:44;;;;;;;;;;;;;;;17.56;72.79;100729.97;7407836;19;1629;-66
2022/12/07 12:51:31;;;;;;;;;;;;;;;17.60;72.81;100739.44;7406477;19;1899;-67
2022/12/07 12:54:13;;;;;;;;;;;;;;;17.57;72.73;100745.91;7407045;19;1696;-69
2022/12/07 12:56:45;;;;;;;;;;;;;;;17.55;72.75;100760.34;7408475;19;1395;-70
2022/12/07 12:59:25;;;;;;;;;;;;;;;17.53;72.90;100744.44;7407829;19;1314;-64
2022/12/07 13:01:54;;;;;;;;;;;;;;;17.56;72.59;100748.69;7404220;19;1466;-67
2022/12/07 13:04:43;;;;;;;;;;;;;;;17.50;72.67;100750.03;7407062;19;1562;-67
2022/12/07 13:07:15;;;;;;;;;;;;;;;17.53;72.17;100738.22;7409332;19;1511;-68
2022/12/07 13:09:48;;;;;;;;;;;;;;;17.45;72.36;100739.72;7406397;19;1405;-68